createdAt,value
2022-08-02T00:02:36.627Z,0.65
2022-08-02T00:05:19.331Z,0.90
2022-08-02T00:08:02.318Z,0.80
2022-08-02T00:10:45.130Z,0.88
2022-08-02T00:13:28.262Z,0.50
2022-08-02T00:16:12.425Z,0.90
2022-08-02T00:18:59.945Z,0.60
2022-08-02T00:21:42.762Z,0.80
2022-08-02T00:24:30.999Z,0.80
2022-08-02T00:27:13.998Z,0.70
2022-08-02T00:29:56.762Z,0.75
2022-08-02T00:32:40.984Z,0.75
2022-08-02T00:35:24.835Z,0.80
2022-08-02T00:38:07.696Z,0.52
2022-08-02T00:40:54.247Z,0.90
2022-08-02T00:43:40.607Z,0.80
2022-08-02T00:46:23.366Z,0.60
2022-08-02T00:49:07.737Z,0.70
2022-08-02T00:51:51.914Z,0.65
2022-08-02T00:54:35.730Z,0.70
2022-08-02T00:57:18.633Z,0.60
2022-08-02T01:00:01.365Z,0.70
2022-08-02T01:02:44.078Z,0.60
2022-08-02T01:05:28.417Z,0.50
2022-08-02T01:08:11.524Z,0.93
2022-08-02T01:10:54.320Z,0.60
2022-08-02T01:13:37.541Z,0.52
2022-08-02T01:16:21.843Z,0.80
2022-08-02T01:19:14.301Z,0.73
2022-08-02T01:22:08.957Z,0.60
2022-08-02T01:25:08.912Z,0.60
2022-08-02T01:27:54.852Z,0.70
2022-08-02T01:30:40.746Z,0.68
2022-08-02T01:33:24.221Z,0.70
2022-08-02T01:36:10.570Z,0.52
2022-08-02T01:38:54.931Z,0.70
2022-08-02T01:41:38.170Z,0.50
2022-08-02T01:44:27.574Z,0.60
2022-08-02T01:47:17.902Z,0.70
2022-08-02T01:50:01.610Z,0.60
2022-08-02T01:52:53.621Z,0.50
2022-08-02T01:55:58.266Z,0.52
2022-08-02T01:58:42.777Z,0.75
2022-08-02T02:01:25.748Z,0.50
2022-08-02T02:04:11.053Z,0.60
2022-08-02T02:06:54.223Z,0.77
2022-08-02T02:09:47.653Z,0.88
2022-08-02T02:12:35.282Z,0.70
2022-08-02T02:15:18.507Z,0.88
2022-08-02T02:18:12.765Z,0.80
2022-08-02T02:20:58.169Z,0.70
2022-08-02T02:23:41.108Z,0.77
2022-08-02T02:26:31.343Z,0.70
2022-08-02T02:29:15.362Z,1.02
2022-08-02T02:31:59.675Z,0.70
2022-08-02T02:34:44.545Z,0.75
2022-08-02T02:37:29.848Z,0.70
2022-08-02T02:40:13.445Z,0.60
2022-08-02T02:42:56.333Z,0.80
2022-08-02T02:45:40.350Z,0.80
2022-08-02T02:48:23.542Z,0.50
2022-08-02T02:51:14.048Z,0.45
2022-08-02T02:54:32.252Z,0.70
2022-08-02T02:57:02.150Z,0.60
2022-08-02T02:59:49.529Z,0.88
2022-08-02T03:02:33.075Z,0.77
2022-08-02T03:05:16.800Z,1.00
2022-08-02T03:07:59.641Z,0.60
2022-08-02T03:10:44.679Z,0.70
2022-08-02T03:13:33.145Z,0.60
2022-08-02T03:16:20.246Z,0.50
2022-08-02T03:19:03.384Z,0.50
2022-08-02T03:21:46.849Z,0.40
2022-08-02T03:24:29.534Z,0.50
2022-08-02T03:27:13.907Z,0.60
2022-08-02T03:29:56.607Z,0.55
2022-08-02T03:32:40.130Z,0.47
2022-08-02T03:35:24.402Z,0.75
2022-08-02T03:38:07.604Z,0.60
2022-08-02T03:40:50.651Z,0.50
2022-08-02T03:43:34.789Z,0.70
2022-08-02T03:46:19.000Z,0.40
2022-08-02T03:49:01.697Z,0.43
2022-08-02T03:51:44.992Z,0.50
2022-08-02T03:54:34.685Z,0.47
2022-08-02T03:57:27.996Z,0.50
2022-08-02T04:00:13.166Z,0.70
2022-08-02T04:02:56.501Z,0.60
2022-08-02T04:06:03.434Z,0.65
2022-08-02T04:08:41.982Z,0.68
2022-08-02T04:11:33.995Z,0.80
2022-08-02T04:14:16.770Z,0.70
2022-08-02T04:17:03.650Z,0.68
2022-08-02T04:19:48.419Z,0.70
2022-08-02T04:22:32.803Z,0.77
2022-08-02T04:25:17.601Z,0.80
2022-08-02T04:28:17.010Z,0.60
2022-08-02T04:31:02.145Z,0.60
2022-08-02T04:33:46.516Z,0.60
2022-08-02T04:36:31.002Z,0.60
2022-08-02T04:39:15.126Z,0.80
2022-08-02T04:41:58.095Z,0.63
2022-08-02T04:44:40.975Z,0.60
2022-08-02T04:47:54.417Z,0.55
2022-08-02T04:50:28.830Z,0.60
2022-08-02T04:53:12.767Z,0.93
2022-08-02T04:55:55.619Z,0.63
2022-08-02T04:58:40.529Z,0.52
2022-08-02T05:01:23.797Z,0.65
2022-08-02T05:04:06.912Z,0.60
2022-08-02T05:06:51.271Z,0.60
2022-08-02T05:09:34.313Z,0.70
2022-08-02T05:12:17.520Z,0.60
2022-08-02T05:15:00.544Z,0.88
2022-08-02T05:17:46.821Z,0.80
2022-08-02T05:20:31.294Z,0.90
2022-08-02T05:23:16.158Z,1.00
2022-08-02T05:25:59.097Z,1.40
2022-08-02T05:28:42.098Z,1.38
2022-08-02T05:31:25.007Z,1.20
2022-08-02T05:34:11.824Z,1.20
2022-08-02T05:36:55.050Z,1.20
2022-08-02T05:39:39.777Z,1.30
2022-08-02T05:42:39.019Z,1.13
2022-08-02T05:45:21.930Z,1.25
2022-08-02T05:48:05.258Z,1.17
2022-08-02T05:50:50.090Z,1.30
2022-08-02T05:53:37.282Z,1.60
2022-08-02T05:56:25.150Z,1.50
2022-08-02T05:59:13.216Z,1.17
2022-08-02T06:01:57.502Z,1.35
2022-08-02T06:04:47.465Z,1.15
2022-08-02T06:07:31.102Z,1.90
2022-08-02T06:10:14.937Z,1.50
2022-08-02T06:13:06.104Z,1.58
2022-08-02T06:15:53.916Z,1.92
2022-08-02T06:18:37.108Z,2.00
2022-08-02T06:22:34.995Z,1.65
2022-08-02T06:24:25.118Z,1.48
2022-08-02T06:27:08.270Z,1.70
2022-08-02T06:29:52.753Z,1.75
2022-08-02T06:32:35.750Z,1.70
2022-08-02T06:35:18.665Z,2.00
2022-08-02T06:38:01.940Z,1.90
2022-08-02T06:40:46.809Z,1.30
2022-08-02T06:43:36.056Z,1.50
2022-08-02T06:46:38.027Z,1.65
2022-08-02T06:49:26.586Z,1.63
2022-08-02T06:52:32.479Z,1.27
2022-08-02T06:55:15.652Z,1.50
2022-08-02T06:57:58.478Z,1.17
2022-08-02T07:00:41.661Z,1.63
2022-08-02T07:03:26.601Z,1.30
2022-08-02T07:06:09.839Z,1.48
2022-08-02T07:09:18.286Z,1.25
2022-08-02T07:11:55.869Z,1.50
2022-08-02T07:14:39.778Z,1.48
2022-08-02T07:17:22.581Z,1.50
2022-08-02T07:20:07.773Z,1.23
2022-08-02T07:22:50.795Z,1.38
2022-08-02T07:26:02.746Z,1.65
2022-08-02T07:28:37.031Z,1.25
2022-08-02T07:31:19.849Z,1.08
2022-08-02T07:34:02.742Z,1.27
2022-08-02T07:36:46.908Z,1.35
2022-08-02T07:39:32.067Z,1.00
2022-08-02T07:42:17.279Z,1.25
2022-08-02T07:45:00.155Z,1.13
2022-08-02T07:47:43.610Z,1.00
2022-08-02T07:50:28.422Z,1.05
2022-08-02T07:53:12.928Z,1.20
2022-08-02T07:55:55.852Z,1.10
2022-08-02T07:58:38.773Z,0.88
2022-08-02T08:01:21.904Z,1.15
2022-08-02T08:04:04.917Z,1.23
2022-08-02T08:06:52.057Z,0.93
2022-08-02T08:09:40.098Z,0.95
2022-08-02T08:12:23.416Z,1.10
2022-08-02T08:15:06.920Z,1.00
2022-08-02T08:17:49.956Z,1.30
2022-08-02T08:20:33.297Z,1.17
2022-08-02T08:23:16.298Z,1.10
2022-08-02T08:26:00.876Z,0.88
2022-08-02T08:28:43.781Z,1.02
2022-08-02T08:31:26.601Z,1.25
2022-08-02T08:34:10.250Z,1.20
2022-08-02T08:36:53.048Z,0.98
2022-08-02T08:39:35.915Z,0.90
2022-08-02T08:42:40.454Z,1.40
2022-08-02T08:45:23.512Z,1.25
2022-08-02T08:48:08.999Z,1.05
2022-08-02T08:50:54.311Z,0.90
2022-08-02T08:53:40.453Z,1.10
2022-08-02T08:56:24.518Z,1.30
2022-08-02T08:59:08.745Z,1.10
2022-08-02T09:01:52.264Z,1.23
2022-08-02T09:04:35.666Z,1.25
2022-08-02T09:07:18.502Z,1.00
2022-08-02T09:10:01.482Z,0.90
2022-08-02T09:12:44.320Z,1.20
2022-08-02T09:15:28.485Z,0.95
2022-08-02T09:18:11.377Z,1.00
2022-08-02T09:20:57.484Z,1.10
2022-08-02T09:23:41.888Z,0.75
2022-08-02T09:26:25.251Z,0.95
2022-08-02T09:29:08.157Z,1.17
2022-08-02T09:31:52.755Z,1.02
2022-08-02T09:34:52.128Z,1.20
2022-08-02T09:37:34.916Z,1.30
2022-08-02T09:40:17.647Z,0.77
2022-08-02T09:43:00.584Z,1.42
2022-08-02T09:45:43.441Z,0.95
2022-08-02T09:48:27.652Z,1.13
2022-08-02T09:51:10.546Z,0.90
2022-08-02T09:54:08.006Z,0.77
2022-08-02T09:56:53.223Z,1.20
2022-08-02T09:59:36.055Z,0.93
2022-08-02T10:02:19.791Z,1.13
2022-08-02T10:05:07.633Z,0.90
2022-08-02T10:07:50.445Z,1.35
2022-08-02T10:10:33.246Z,1.25
2022-08-02T10:13:21.815Z,1.13
2022-08-02T10:16:07.991Z,0.93
2022-08-02T10:18:51.222Z,1.30
2022-08-02T10:21:40.250Z,1.00
2022-08-02T10:24:28.345Z,1.00
2022-08-02T10:27:15.268Z,1.02
2022-08-02T10:30:00.250Z,1.23
2022-08-02T10:32:46.018Z,0.75
2022-08-02T10:35:31.185Z,1.10
2022-08-02T10:38:17.481Z,0.88
2022-08-02T10:41:00.716Z,1.42
2022-08-02T10:43:49.159Z,0.82
2022-08-02T10:46:33.523Z,1.10
2022-08-02T10:49:38.655Z,0.80
2022-08-02T10:52:21.266Z,0.90
2022-08-02T10:55:13.402Z,1.10
2022-08-02T10:58:12.508Z,1.10
2022-08-02T11:00:55.454Z,0.90
2022-08-02T11:03:40.916Z,1.00
2022-08-02T11:06:25.198Z,0.98
2022-08-02T11:09:31.836Z,0.77
2022-08-02T11:12:17.470Z,0.73
2022-08-02T11:15:01.037Z,0.90
2022-08-02T11:17:53.796Z,1.00
2022-08-02T11:20:36.813Z,0.90
2022-08-02T11:23:46.105Z,0.90
2022-08-02T11:26:47.631Z,0.90
2022-08-02T11:29:39.062Z,0.80
2022-08-02T11:32:31.136Z,0.60
2022-08-02T11:35:14.335Z,0.93
2022-08-02T11:37:58.747Z,0.80
2022-08-02T11:40:41.636Z,0.80
2022-08-02T11:43:26.985Z,0.82
2022-08-02T11:46:16.820Z,0.80
2022-08-02T11:49:11.931Z,0.85
2022-08-02T11:51:56.049Z,0.82
2022-08-02T11:54:40.757Z,1.00
2022-08-02T11:57:23.730Z,0.90
2022-08-02T12:00:14.939Z,0.90
2022-08-02T12:02:59.186Z,0.90
2022-08-02T12:06:04.892Z,0.90
2022-08-02T12:08:54.349Z,0.80
2022-08-02T12:11:39.193Z,0.80
2022-08-02T12:14:22.066Z,0.90
2022-08-02T12:17:22.064Z,0.85
2022-08-02T12:20:06.640Z,0.88
2022-08-02T12:22:49.795Z,1.00
2022-08-02T12:25:33.445Z,1.08
2022-08-02T12:28:20.436Z,0.88
2022-08-02T12:31:03.285Z,0.90
2022-08-02T12:33:50.950Z,0.90
2022-08-02T12:36:35.082Z,1.05
2022-08-02T12:39:17.931Z,0.63
2022-08-02T12:42:00.848Z,0.80
2022-08-02T12:44:51.590Z,0.85
2022-08-02T12:47:45.896Z,0.85
2022-08-02T12:50:30.059Z,0.80
2022-08-02T12:53:15.207Z,1.42
2022-08-02T12:56:01.246Z,0.88
2022-08-02T12:58:49.604Z,0.80
2022-08-02T13:01:32.472Z,0.82
2022-08-02T13:04:16.505Z,0.73
2022-08-02T13:06:59.718Z,0.93
2022-08-02T13:09:45.628Z,0.80
2022-08-02T13:12:28.612Z,0.70
2022-08-02T13:15:12.671Z,0.75
2022-08-02T13:18:14.668Z,0.75
2022-08-02T13:20:57.550Z,0.80
2022-08-02T13:23:54.839Z,0.80
2022-08-02T13:26:39.543Z,0.70
2022-08-02T13:29:22.384Z,0.70
2022-08-02T13:32:05.305Z,0.95
2022-08-02T13:34:48.208Z,0.93
2022-08-02T13:37:31.016Z,0.90
2022-08-02T13:40:22.543Z,0.77
2022-08-02T13:43:07.087Z,1.10
2022-08-02T13:45:50.040Z,0.80
2022-08-02T13:48:32.987Z,0.60
2022-08-02T13:51:15.695Z,0.80
2022-08-02T13:53:58.592Z,1.00
2022-08-02T13:56:41.524Z,0.88
2022-08-02T13:59:57.262Z,0.85
2022-08-02T14:02:29.124Z,1.20
2022-08-02T14:05:12.219Z,0.80
2022-08-02T14:07:55.003Z,1.00
2022-08-02T14:10:37.850Z,0.85
2022-08-02T14:13:20.763Z,0.68
2022-08-02T14:16:07.809Z,0.77
2022-08-02T14:18:50.908Z,0.90
2022-08-02T14:21:46.084Z,0.73
2022-08-02T14:24:31.560Z,1.02
2022-08-02T14:27:15.637Z,0.77
2022-08-02T14:29:58.540Z,0.90
2022-08-02T14:32:42.780Z,0.90
2022-08-02T14:35:25.707Z,0.73
2022-08-02T14:38:08.536Z,1.00
2022-08-02T14:40:51.349Z,0.77
2022-08-02T14:43:51.330Z,0.70
2022-08-02T14:46:34.849Z,1.00
2022-08-02T14:49:24.453Z,0.90
2022-08-02T14:52:09.195Z,1.05
2022-08-02T14:54:52.272Z,0.85
2022-08-02T14:57:35.130Z,1.10
2022-08-02T15:00:18.284Z,1.00
2022-08-02T15:03:01.151Z,1.02
2022-08-02T15:05:45.242Z,0.80
2022-08-02T15:08:28.024Z,1.00
2022-08-02T15:11:11.239Z,1.13
2022-08-02T15:13:54.062Z,1.08
2022-08-02T15:16:55.391Z,0.90
2022-08-02T15:19:57.351Z,1.08
2022-08-02T15:22:44.528Z,1.33
2022-08-02T15:25:32.143Z,1.10
2022-08-02T15:28:15.483Z,1.20
2022-08-02T15:30:58.791Z,1.20
2022-08-02T15:33:41.695Z,1.13
2022-08-02T15:36:24.362Z,1.10
2022-08-02T15:39:08.560Z,1.02
2022-08-02T15:41:51.321Z,1.20
2022-08-02T15:44:34.197Z,1.15
2022-08-02T15:47:16.947Z,1.30
2022-08-02T15:49:59.833Z,1.15
2022-08-02T15:52:42.560Z,1.02
2022-08-02T15:55:26.713Z,1.13
2022-08-02T15:58:16.972Z,1.10
2022-08-02T16:01:00.864Z,1.10
2022-08-02T16:03:43.753Z,1.20
2022-08-02T16:06:26.624Z,1.23
2022-08-02T16:09:09.877Z,1.20
2022-08-02T16:11:54.192Z,1.00
2022-08-02T16:14:36.980Z,1.15
2022-08-02T16:17:48.463Z,1.02
2022-08-02T16:20:23.015Z,1.17
2022-08-02T16:23:06.009Z,1.17
2022-08-02T16:25:49.033Z,1.20
2022-08-02T16:28:33.246Z,1.20
2022-08-02T16:31:16.212Z,1.30
2022-08-02T16:33:59.017Z,1.05
2022-08-02T16:36:41.836Z,1.30
2022-08-02T16:39:24.613Z,1.13
2022-08-02T16:42:07.595Z,0.98
2022-08-02T16:44:53.234Z,1.10
2022-08-02T16:47:43.332Z,1.45
2022-08-02T16:50:28.520Z,1.30
2022-08-02T16:53:17.195Z,1.45
2022-08-02T16:56:14.311Z,1.23
2022-08-02T16:58:59.679Z,1.20
2022-08-02T17:04:47.458Z,1.30
2022-08-02T17:08:08.465Z,1.15
2022-08-02T17:10:34.680Z,1.20
2022-08-02T17:13:17.507Z,1.50
2022-08-02T17:16:20.543Z,1.20
2022-08-02T17:19:05.729Z,1.27
2022-08-02T17:21:50.158Z,1.23
2022-08-02T17:24:33.324Z,3.30
2022-08-02T17:27:20.158Z,1.20
2022-08-02T17:30:03.137Z,1.60
2022-08-02T17:32:54.149Z,1.52
2022-08-02T17:35:51.883Z,1.30
2022-08-02T17:38:35.361Z,1.33
2022-08-02T17:41:37.834Z,1.10
2022-08-02T17:44:36.581Z,1.55
2022-08-02T17:47:21.651Z,1.25
2022-08-02T17:50:04.950Z,1.30
2022-08-02T17:52:53.288Z,1.52
2022-08-02T17:55:42.254Z,1.15
2022-08-02T17:58:33.180Z,1.60
2022-08-02T18:01:24.115Z,1.30
2022-08-02T18:04:07.194Z,1.20
2022-08-02T18:06:51.361Z,1.40
2022-08-02T18:09:35.569Z,1.58
2022-08-02T18:12:18.572Z,1.52
2022-08-02T18:15:01.361Z,1.50
2022-08-02T18:17:49.534Z,1.27
2022-08-02T18:20:33.105Z,1.50
2022-08-02T18:23:16.414Z,1.20
2022-08-02T18:26:00.488Z,1.38
2022-08-02T18:28:43.249Z,1.52
2022-08-02T18:31:29.120Z,1.30
2022-08-02T18:34:24.072Z,1.52
2022-08-02T18:37:07.271Z,1.17
2022-08-02T18:39:51.269Z,1.30
2022-08-02T18:42:35.903Z,1.38
2022-08-02T18:45:19.486Z,1.45
2022-08-02T18:48:04.831Z,1.20
2022-08-02T18:50:50.389Z,1.30
2022-08-02T18:53:41.133Z,1.38
2022-08-02T18:56:25.239Z,1.25
2022-08-02T18:59:10.842Z,1.30
2022-08-02T19:01:53.698Z,1.35
2022-08-02T19:04:37.167Z,0.95
2022-08-02T19:07:22.376Z,1.30
2022-08-02T19:10:05.831Z,1.40
2022-08-02T19:12:52.185Z,1.30
2022-08-02T19:15:39.460Z,1.23
2022-08-02T19:18:27.003Z,1.20
2022-08-02T19:21:14.614Z,1.15
2022-08-02T19:23:57.445Z,1.30
2022-08-02T19:26:40.827Z,1.25
2022-08-02T19:29:42.218Z,1.60
2022-08-02T19:32:39.637Z,1.42
2022-08-02T19:35:30.689Z,1.17
2022-08-02T19:38:14.855Z,1.30
2022-08-02T19:40:57.539Z,1.55
2022-08-02T19:44:24.209Z,1.40
2022-08-02T19:46:42.921Z,1.40
2022-08-02T19:52:37.266Z,1.50
2022-08-02T19:56:01.098Z,1.30
2022-08-02T19:58:23.694Z,1.42
2022-08-02T20:01:09.658Z,1.42
2022-08-02T20:03:59.948Z,1.50
2022-08-02T20:06:46.153Z,1.55
2022-08-02T20:09:33.038Z,1.73
2022-08-02T20:12:16.729Z,1.73
2022-08-02T20:14:59.645Z,1.38
2022-08-02T20:17:47.351Z,1.45
2022-08-02T20:20:32.014Z,1.40
2022-08-02T20:23:32.051Z,1.50
2022-08-02T20:26:16.942Z,1.30
2022-08-02T20:29:02.273Z,1.60
2022-08-02T20:31:45.818Z,1.85
2022-08-02T20:34:29.056Z,1.60
2022-08-02T20:38:01.137Z,1.85
2022-08-02T20:40:18.600Z,1.30
2022-08-02T20:43:01.496Z,1.50
2022-08-02T20:45:45.892Z,1.50
2022-08-02T20:48:29.714Z,1.40
2022-08-02T20:51:14.038Z,1.55
2022-08-02T20:53:56.991Z,1.58
2022-08-02T20:56:41.044Z,1.60
2022-08-02T20:59:25.230Z,1.73
2022-08-02T21:02:08.358Z,1.92
2022-08-02T21:04:59.013Z,1.75
2022-08-02T21:07:53.469Z,2.00
2022-08-02T21:10:38.050Z,1.90
2022-08-02T21:13:27.725Z,1.80
2022-08-02T21:16:13.695Z,1.98
2022-08-02T21:19:00.664Z,1.60
2022-08-02T21:21:43.410Z,1.83
2022-08-02T21:24:26.225Z,1.95
2022-08-02T21:27:51.360Z,1.90
2022-08-02T21:30:14.661Z,2.03
2022-08-02T21:32:57.533Z,1.73
2022-08-02T21:35:40.627Z,1.80
2022-08-02T21:38:36.515Z,1.70
2022-08-02T21:41:19.805Z,1.65
2022-08-02T21:44:06.475Z,2.25
2022-08-02T21:46:52.104Z,1.95
2022-08-02T21:50:09.730Z,1.83
2022-08-02T21:52:37.961Z,1.80
2022-08-02T21:56:00.966Z,1.88
2022-08-02T21:58:28.429Z,2.05
2022-08-02T22:01:11.401Z,1.90
2022-08-02T22:03:56.310Z,1.70
2022-08-02T22:06:39.071Z,1.85
2022-08-02T22:09:44.351Z,2.08
2022-08-02T22:12:27.160Z,1.92
2022-08-02T22:15:11.132Z,1.77
2022-08-02T22:17:59.864Z,2.00
2022-08-02T22:20:44.529Z,1.90
2022-08-02T22:23:38.998Z,1.73
2022-08-02T22:26:31.859Z,2.13
2022-08-02T22:29:15.016Z,1.80
2022-08-02T22:31:57.707Z,2.03
2022-08-02T22:34:51.709Z,1.63
2022-08-02T22:38:14.979Z,1.80
2022-08-02T22:40:40.676Z,1.30
2022-08-02T22:43:23.676Z,1.70
2022-08-02T22:46:09.356Z,1.60
2022-08-02T22:48:52.276Z,1.65
2022-08-02T22:51:37.237Z,1.70
2022-08-02T22:54:21.516Z,2.10
2022-08-02T22:57:06.812Z,2.00
2022-08-02T22:58:51.369Z,1.30
2022-08-02T22:59:06.461Z,1.40
2022-08-02T22:59:54.418Z,1.90
2022-08-02T23:02:37.997Z,1.83
2022-08-02T23:05:21.838Z,1.52
2022-08-02T23:08:04.855Z,1.92
2022-08-02T23:10:49.008Z,2.13
2022-08-02T23:13:32.624Z,2.10
2022-08-02T23:16:36.847Z,2.10
2022-08-02T23:19:36.863Z,2.20
2022-08-02T23:22:20.447Z,1.98
2022-08-02T23:25:03.487Z,2.10
2022-08-02T23:27:50.303Z,2.00
2022-08-02T23:30:33.849Z,2.20
2022-08-02T23:33:16.647Z,2.05
2022-08-02T23:35:59.331Z,2.40
2022-08-02T23:38:42.117Z,2.00
2022-08-02T23:41:25.112Z,2.20
2022-08-02T23:44:16.341Z,2.03
2022-08-02T23:47:00.398Z,2.20
2022-08-02T23:49:43.334Z,2.13
2022-08-02T23:52:26.062Z,2.03
2022-08-02T23:55:09.494Z,1.98
2022-08-02T23:57:52.328Z,1.98
